createdAt,value
2017-08-26T00:01:40.867Z,32.38
2017-08-26T00:04:08.390Z,32.47
2017-08-26T00:06:35.972Z,32.47
2017-08-26T00:09:03.506Z,32.59
2017-08-26T00:11:31.310Z,32.66
2017-08-26T00:13:58.901Z,32.70
2017-08-26T00:16:26.431Z,32.78
2017-08-26T00:18:53.969Z,32.70
2017-08-26T00:21:21.589Z,32.81
2017-08-26T00:23:49.171Z,33.19
2017-08-26T00:26:16.728Z,32.94
2017-08-26T00:28:44.277Z,33.00
2017-08-26T00:31:11.947Z,33.11
2017-08-26T00:33:39.472Z,33.10
2017-08-26T00:36:06.983Z,33.22
2017-08-26T00:38:34.557Z,33.30
2017-08-26T00:41:02.065Z,33.38
2017-08-26T00:43:29.578Z,33.43
2017-08-26T00:45:57.170Z,33.40
2017-08-26T00:48:24.726Z,33.49
2017-08-26T00:50:52.369Z,33.50
2017-08-26T00:53:19.925Z,33.55
2017-08-26T00:55:47.471Z,33.63
2017-08-26T00:58:15.005Z,33.60
2017-08-26T01:00:42.535Z,33.81
2017-08-26T01:03:10.089Z,33.82
2017-08-26T01:05:37.645Z,33.79
2017-08-26T01:08:05.210Z,33.87
2017-08-26T01:10:32.784Z,33.86
2017-08-26T01:13:00.335Z,34.09
2017-08-26T01:15:27.843Z,34.02
2017-08-26T01:17:55.420Z,33.97
2017-08-26T01:20:23.001Z,34.06
2017-08-26T01:22:50.713Z,34.12
2017-08-26T01:25:18.252Z,34.16
2017-08-26T01:27:45.870Z,34.21
2017-08-26T01:30:13.487Z,34.23
2017-08-26T01:32:41.025Z,34.28
2017-08-26T01:35:08.550Z,34.38
2017-08-26T01:37:36.107Z,34.31
2017-08-26T01:40:03.625Z,34.43
2017-08-26T01:42:31.125Z,34.38
2017-08-26T01:44:58.684Z,34.48
2017-08-26T01:47:26.246Z,34.46
2017-08-26T01:49:53.848Z,34.51
2017-08-26T01:52:21.402Z,34.47
2017-08-26T01:54:49.003Z,34.54
2017-08-26T01:57:16.571Z,34.59
2017-08-26T01:59:44.181Z,34.63
2017-08-26T02:02:11.698Z,34.61
2017-08-26T02:04:39.214Z,34.70
2017-08-26T02:07:06.797Z,34.81
2017-08-26T02:09:34.309Z,34.75
2017-08-26T02:12:01.805Z,34.77
2017-08-26T02:14:29.345Z,34.79
2017-08-26T02:16:56.888Z,34.85
2017-08-26T02:19:24.441Z,34.89
2017-08-26T02:21:52.062Z,34.87
2017-08-26T02:24:19.617Z,34.96
2017-08-26T02:26:47.186Z,35.04
2017-08-26T02:29:14.701Z,35.04
2017-08-26T02:31:42.358Z,35.12
2017-08-26T02:34:09.862Z,35.25
2017-08-26T02:36:37.453Z,35.14
2017-08-26T02:39:04.977Z,35.24
2017-08-26T02:41:32.606Z,35.18
2017-08-26T02:44:00.197Z,35.29
2017-08-26T02:46:27.744Z,35.36
2017-08-26T02:48:55.302Z,35.37
2017-08-26T02:51:22.901Z,35.33
2017-08-26T02:53:50.420Z,35.41
2017-08-26T02:56:17.990Z,35.47
2017-08-26T02:58:45.619Z,35.47
2017-08-26T03:01:13.136Z,35.56
2017-08-26T03:03:40.731Z,35.47
2017-08-26T03:06:08.289Z,35.55
2017-08-26T03:08:35.873Z,35.53
2017-08-26T03:11:03.478Z,35.66
2017-08-26T03:13:31.028Z,35.67
2017-08-26T03:15:58.549Z,35.64
2017-08-26T03:18:26.095Z,35.66
2017-08-26T03:20:53.841Z,35.75
2017-08-26T03:23:21.413Z,35.77
2017-08-26T03:25:49.023Z,35.85
2017-08-26T03:28:16.531Z,35.87
2017-08-26T03:30:44.119Z,35.98
2017-08-26T03:33:11.685Z,36.00
2017-08-26T03:35:39.197Z,36.09
2017-08-26T03:38:06.741Z,36.09
2017-08-26T03:40:34.257Z,36.04
2017-08-26T03:43:01.817Z,36.09
2017-08-26T03:45:29.344Z,36.18
2017-08-26T03:47:56.845Z,36.21
2017-08-26T03:50:24.417Z,36.30
2017-08-26T03:52:52.056Z,36.29
2017-08-26T03:55:19.641Z,36.39
2017-08-26T03:57:47.191Z,36.42
2017-08-26T04:00:14.750Z,36.37
2017-08-26T04:02:42.379Z,36.57
2017-08-26T04:05:09.917Z,36.43
2017-08-26T04:07:37.455Z,36.44
2017-08-26T04:10:05.001Z,36.43
2017-08-26T04:12:32.525Z,36.23
2017-08-26T04:15:00.073Z,35.89
2017-08-26T04:17:27.613Z,35.56
2017-08-26T04:19:55.230Z,35.20
2017-08-26T04:22:22.823Z,35.41
2017-08-26T04:24:50.391Z,35.49
2017-08-26T04:27:17.916Z,35.58
2017-08-26T04:29:45.462Z,35.44
2017-08-26T04:32:13.018Z,35.39
2017-08-26T04:34:40.524Z,35.40
2017-08-26T04:37:08.084Z,35.35
2017-08-26T04:39:35.634Z,35.40
2017-08-26T04:42:03.248Z,35.45
2017-08-26T04:44:30.807Z,35.18
2017-08-26T04:46:58.612Z,35.11
2017-08-26T04:49:26.114Z,35.20
2017-08-26T04:51:53.637Z,35.14
2017-08-26T04:54:21.201Z,35.19
2017-08-26T04:56:48.728Z,35.24
2017-08-26T04:59:16.421Z,35.29
2017-08-26T05:01:44.024Z,35.37
2017-08-26T05:04:11.533Z,35.40
2017-08-26T05:06:39.119Z,35.44
2017-08-26T05:09:06.628Z,35.45
2017-08-26T05:11:34.188Z,35.47
2017-08-26T05:14:01.709Z,35.53
2017-08-26T05:16:29.207Z,35.52
2017-08-26T05:18:56.808Z,35.56
2017-08-26T05:21:24.341Z,35.65
2017-08-26T05:23:51.934Z,35.61
2017-08-26T05:26:19.601Z,35.66
2017-08-26T05:28:47.111Z,35.66
2017-08-26T05:31:14.684Z,35.70
2017-08-26T05:33:42.201Z,35.68
2017-08-26T05:36:09.709Z,35.71
2017-08-26T05:38:37.253Z,35.70
2017-08-26T05:41:04.772Z,35.67
2017-08-26T05:43:32.278Z,35.70
2017-08-26T05:45:59.853Z,35.68
2017-08-26T05:48:27.356Z,35.67
2017-08-26T05:50:54.874Z,35.66
2017-08-26T05:53:22.471Z,35.63
2017-08-26T05:55:49.973Z,35.62
2017-08-26T05:58:17.496Z,35.59
2017-08-26T06:00:45.091Z,35.58
2017-08-26T06:03:12.602Z,35.58
2017-08-26T06:05:40.149Z,35.54
2017-08-26T06:08:07.656Z,35.55
2017-08-26T06:13:09.030Z,35.49
2017-08-26T06:15:36.532Z,35.47
2017-08-26T06:18:04.098Z,35.46
2017-08-26T06:20:31.628Z,35.45
2017-08-26T06:22:59.217Z,35.45
2017-08-26T06:25:26.741Z,35.45
2017-08-26T06:27:54.287Z,35.43
2017-08-26T06:30:21.832Z,35.40
2017-08-26T06:32:49.375Z,35.40
2017-08-26T06:35:16.960Z,35.38
2017-08-26T06:37:44.470Z,35.33
2017-08-26T06:40:12.008Z,35.33
2017-08-26T06:42:39.580Z,35.30
2017-08-26T06:45:07.113Z,35.28
2017-08-26T06:47:34.636Z,35.25
2017-08-26T06:50:02.283Z,35.24
2017-08-26T06:52:29.869Z,35.21
2017-08-26T06:54:57.449Z,35.20
2017-08-26T06:57:25.020Z,35.22
2017-08-26T06:59:52.549Z,35.22
2017-08-26T07:02:20.123Z,35.21
2017-08-26T07:04:47.681Z,35.22
2017-08-26T07:07:15.286Z,35.22
2017-08-26T07:09:42.849Z,35.23
2017-08-26T07:12:10.429Z,35.22
2017-08-26T07:14:37.982Z,35.23
2017-08-26T07:17:05.537Z,35.26
2017-08-26T07:19:33.066Z,35.25
2017-08-26T07:22:00.610Z,35.24
2017-08-26T07:24:28.146Z,35.21
2017-08-26T07:26:55.752Z,35.22
2017-08-26T07:29:23.263Z,35.20
2017-08-26T07:31:50.893Z,35.18
2017-08-26T07:34:18.471Z,35.17
2017-08-26T07:36:46.032Z,35.15
2017-08-26T07:39:13.645Z,35.06
2017-08-26T07:41:41.153Z,35.04
2017-08-26T07:44:08.716Z,35.00
2017-08-26T07:46:36.248Z,34.89
2017-08-26T07:49:03.798Z,34.85
2017-08-26T07:51:31.333Z,34.77
2017-08-26T07:53:58.839Z,34.72
2017-08-26T07:56:26.375Z,34.71
2017-08-26T07:58:53.921Z,34.62
2017-08-26T08:01:21.462Z,34.58
2017-08-26T08:03:49.065Z,34.51
2017-08-26T08:06:16.584Z,34.54
2017-08-26T08:08:44.225Z,34.46
2017-08-26T08:11:11.730Z,34.39
2017-08-26T08:13:39.305Z,34.45
2017-08-26T08:16:06.818Z,34.41
2017-08-26T08:18:34.320Z,34.34
2017-08-26T08:21:01.872Z,34.31
2017-08-26T08:23:29.382Z,34.32
2017-08-26T08:25:56.934Z,34.29
2017-08-26T08:28:24.489Z,34.30
2017-08-26T08:30:52.110Z,34.30
2017-08-26T08:33:19.662Z,34.30
2017-08-26T08:35:47.173Z,34.27
2017-08-26T08:38:14.723Z,34.23
2017-08-26T08:40:42.273Z,34.22
2017-08-26T08:43:09.831Z,34.17
2017-08-26T08:45:37.361Z,34.17
2017-08-26T08:48:04.865Z,34.17
2017-08-26T08:50:32.465Z,34.20
2017-08-26T08:52:59.971Z,34.15
2017-08-26T08:55:27.521Z,34.13
2017-08-26T08:57:55.049Z,34.15
2017-08-26T09:00:22.603Z,34.15
2017-08-26T09:02:50.191Z,34.21
2017-08-26T09:05:17.697Z,34.20
2017-08-26T09:07:45.226Z,34.17
2017-08-26T09:10:12.777Z,34.19
2017-08-26T09:12:40.353Z,34.15
2017-08-26T09:15:07.867Z,34.13
2017-08-26T09:17:35.398Z,34.10
2017-08-26T09:20:03.049Z,34.12
2017-08-26T09:22:30.597Z,34.12
2017-08-26T09:24:58.149Z,34.10
2017-08-26T09:27:25.743Z,34.10
2017-08-26T09:29:53.293Z,34.08
2017-08-26T09:32:20.834Z,34.08
2017-08-26T09:34:48.449Z,34.08
2017-08-26T09:37:16.056Z,34.07
2017-08-26T09:39:43.571Z,34.08
2017-08-26T09:42:11.097Z,34.09
2017-08-26T09:44:38.680Z,34.07
2017-08-26T09:47:06.246Z,34.05
2017-08-26T09:49:33.756Z,34.03
2017-08-26T09:52:01.254Z,34.05
2017-08-26T09:54:28.814Z,34.01
2017-08-26T09:56:56.356Z,34.01
2017-08-26T09:59:23.939Z,34.00
2017-08-26T10:01:51.597Z,34.01
2017-08-26T10:04:19.242Z,34.02
2017-08-26T10:06:46.805Z,34.00
2017-08-26T10:09:14.369Z,34.01
2017-08-26T10:11:41.940Z,33.96
2017-08-26T10:14:09.509Z,33.94
2017-08-26T10:16:37.025Z,33.93
2017-08-26T10:19:04.533Z,33.97
2017-08-26T10:21:32.079Z,33.88
2017-08-26T10:23:59.591Z,33.82
2017-08-26T10:26:27.150Z,33.81
2017-08-26T10:28:54.730Z,33.76
2017-08-26T10:31:22.342Z,33.73
2017-08-26T10:33:49.936Z,33.68
2017-08-26T10:36:17.495Z,33.64
2017-08-26T10:38:45.073Z,33.61
2017-08-26T10:41:12.628Z,33.50
2017-08-26T10:43:40.190Z,33.45
2017-08-26T10:46:07.732Z,33.56
2017-08-26T10:48:35.294Z,33.42
2017-08-26T10:51:02.822Z,33.26
2017-08-26T10:53:30.383Z,33.28
2017-08-26T10:55:57.885Z,33.17
2017-08-26T10:58:25.569Z,33.07
2017-08-26T11:00:53.210Z,32.99
2017-08-26T11:03:20.786Z,32.90
2017-08-26T11:05:48.372Z,32.82
2017-08-26T11:08:15.946Z,32.79
2017-08-26T11:10:43.474Z,32.72
2017-08-26T11:13:10.980Z,32.62
2017-08-26T11:15:38.553Z,32.39
2017-08-26T11:18:06.125Z,32.36
2017-08-26T11:20:33.685Z,32.46
2017-08-26T11:23:01.207Z,32.22
2017-08-26T11:25:28.758Z,32.14
2017-08-26T11:27:56.332Z,32.09
2017-08-26T11:30:23.930Z,31.99
2017-08-26T11:32:51.501Z,31.89
2017-08-26T11:35:19.109Z,31.68
2017-08-26T11:37:46.686Z,31.53
2017-08-26T11:40:14.267Z,31.76
2017-08-26T11:42:41.809Z,31.62
2017-08-26T11:45:09.371Z,31.89
2017-08-26T11:47:36.916Z,31.78
2017-08-26T11:50:04.580Z,31.46
2017-08-26T11:52:32.099Z,31.35
2017-08-26T11:54:59.665Z,31.32
2017-08-26T11:57:27.189Z,31.28
2017-08-26T11:59:54.719Z,31.09
2017-08-26T12:02:22.374Z,30.95
2017-08-26T12:04:49.913Z,30.95
2017-08-26T12:07:18.137Z,30.94
2017-08-26T12:09:45.739Z,30.99
2017-08-26T12:12:13.287Z,30.60
2017-08-26T12:14:40.861Z,30.96
2017-08-26T12:17:08.412Z,30.72
2017-08-26T12:19:35.988Z,30.72
2017-08-26T12:22:03.559Z,30.39
2017-08-26T12:24:31.146Z,30.55
2017-08-26T12:26:58.713Z,30.42
2017-08-26T12:29:26.239Z,30.44
2017-08-26T12:31:54.273Z,30.34
2017-08-26T12:34:22.057Z,30.46
2017-08-26T12:36:49.641Z,29.94
2017-08-26T12:39:17.184Z,30.06
2017-08-26T12:41:44.830Z,29.97
2017-08-26T12:44:12.454Z,30.06
2017-08-26T12:46:40.023Z,30.25
2017-08-26T12:49:07.540Z,29.84
2017-08-26T12:51:35.060Z,29.78
2017-08-26T12:54:02.622Z,29.59
2017-08-26T12:56:30.131Z,29.55
2017-08-26T12:58:57.648Z,29.96
2017-08-26T13:01:25.557Z,29.73
2017-08-26T13:03:53.065Z,29.74
2017-08-26T13:06:20.624Z,29.83
2017-08-26T13:08:48.173Z,29.78
2017-08-26T13:11:15.684Z,29.80
2017-08-26T13:13:43.270Z,29.69
2017-08-26T13:16:10.854Z,30.05
2017-08-26T13:18:38.370Z,29.79
2017-08-26T13:21:05.878Z,29.75
2017-08-26T13:23:33.541Z,29.72
2017-08-26T13:26:01.722Z,29.64
2017-08-26T13:28:29.238Z,29.50
2017-08-26T13:30:56.742Z,29.28
2017-08-26T13:33:24.313Z,29.37
2017-08-26T13:35:51.869Z,29.33
2017-08-26T13:38:19.643Z,29.11
2017-08-26T13:40:47.177Z,29.07
2017-08-26T13:43:15.033Z,29.28
2017-08-26T13:45:42.914Z,29.42
2017-08-26T13:48:10.428Z,28.98
2017-08-26T13:50:37.974Z,28.97
2017-08-26T13:53:05.561Z,29.08
2017-08-26T13:55:33.130Z,29.27
2017-08-26T13:58:11.423Z,28.99
2017-08-26T14:00:40.779Z,28.94
2017-08-26T14:03:08.346Z,29.04
2017-08-26T14:05:35.853Z,28.83
2017-08-26T14:08:03.445Z,28.90
2017-08-26T14:10:30.980Z,28.75
2017-08-26T14:12:58.493Z,28.87
2017-08-26T14:15:26.127Z,28.65
2017-08-26T14:17:53.817Z,28.46
